createdAt,value
2019-01-02T05:00:59.382Z,21.53
2019-01-02T05:03:28.784Z,21.80
2019-01-02T05:05:58.262Z,19.60
2019-01-02T05:08:27.759Z,18.60
2019-01-02T05:10:57.266Z,21.50
2019-01-02T05:13:26.149Z,17.47
2019-01-02T05:15:55.661Z,23.50
2019-01-02T05:18:24.817Z,19.43
2019-01-02T05:20:54.143Z,19.13
2019-01-02T05:23:23.304Z,21.10
2019-01-02T05:25:52.133Z,16.37
2019-01-02T05:28:21.235Z,14.93
2019-01-02T05:30:50.397Z,17.60
2019-01-02T05:33:19.283Z,20.23
2019-01-02T05:35:48.752Z,23.83
2019-01-02T05:38:17.700Z,17.43
2019-01-02T05:40:46.477Z,17.37
2019-01-02T05:43:15.282Z,20.07
2019-01-02T05:45:44.144Z,17.17
2019-01-02T05:48:12.933Z,23.13
2019-01-02T05:50:41.929Z,18.77
2019-01-02T05:53:11.353Z,14.43
2019-01-02T05:55:40.504Z,23.47
2019-01-02T05:58:09.656Z,24.33
2019-01-02T06:00:39.943Z,16.30
2019-01-02T06:03:09.153Z,14.40
2019-01-02T06:05:38.222Z,21.25
2019-01-02T06:08:07.623Z,17.77
2019-01-02T06:10:36.761Z,19.70
2019-01-02T06:13:05.658Z,19.70
2019-01-02T06:15:34.601Z,15.60
2019-01-02T06:18:03.426Z,14.53
2019-01-02T06:20:32.295Z,12.77
2019-01-02T06:23:01.961Z,16.40
2019-01-02T06:25:31.440Z,14.57
2019-01-02T06:28:00.234Z,13.40
2019-01-02T06:30:29.392Z,14.17
2019-01-02T06:32:58.564Z,19.20
2019-01-02T06:35:27.786Z,13.70
2019-01-02T06:37:56.643Z,13.83
2019-01-02T06:40:25.757Z,8.03
2019-01-02T06:42:54.893Z,10.93
2019-01-02T06:45:23.832Z,18.83
2019-01-02T06:47:53.239Z,10.80
2019-01-02T06:50:26.076Z,25.00
2019-01-02T06:52:55.236Z,18.27
2019-01-02T06:55:24.390Z,20.07
2019-01-02T06:57:54.336Z,22.80
2019-01-02T07:00:34.798Z,17.60
2019-01-02T07:03:04.034Z,30.07
2019-01-02T07:05:33.437Z,17.57
2019-01-02T07:08:02.941Z,20.27
2019-01-02T07:10:31.756Z,20.83
2019-01-02T07:13:01.235Z,17.97
2019-01-02T07:15:30.441Z,23.03
2019-01-02T07:17:59.965Z,22.70
2019-01-02T07:20:29.118Z,19.97
2019-01-02T07:22:58.326Z,15.87
2019-01-02T07:25:27.227Z,18.37
2019-01-02T07:27:57.033Z,22.57
2019-01-02T07:30:26.452Z,20.00
2019-01-02T07:32:55.678Z,17.67
2019-01-02T07:36:00.800Z,17.10
2019-01-02T07:39:04.577Z,14.30
2019-01-02T07:42:23.648Z,15.77
2019-01-02T07:45:28.489Z,14.03
2019-01-02T07:48:27.882Z,17.57
2019-01-02T07:51:23.971Z,20.53
2019-01-02T07:54:30.788Z,15.80
2019-01-02T07:57:47.938Z,16.27
2019-01-02T08:00:28.437Z,18.37
2019-01-02T08:03:31.316Z,16.87
2019-01-02T08:06:43.752Z,17.73
2019-01-02T08:09:49.521Z,14.80
2019-01-02T08:12:51.080Z,18.07
2019-01-02T08:15:46.499Z,19.00
2019-01-02T08:19:08.836Z,14.17
2019-01-02T08:22:09.476Z,14.17
2019-01-02T08:25:21.877Z,20.03
2019-01-02T08:28:16.564Z,13.17
2019-01-02T08:31:22.673Z,11.93
2019-01-02T08:34:48.865Z,11.47
2019-01-02T08:37:58.464Z,10.53
2019-01-02T08:40:53.645Z,11.20
2019-01-02T08:43:55.380Z,11.30
2019-01-02T08:46:39.364Z,13.30
2019-01-02T08:49:46.125Z,14.00
2019-01-02T08:52:50.137Z,9.20
2019-01-02T08:55:50.170Z,4.40
2019-01-02T08:59:05.360Z,9.47
2019-01-02T09:02:15.158Z,4.20
2019-01-02T09:04:57.413Z,7.67
2019-01-02T09:07:56.700Z,13.57
2019-01-02T09:10:57.757Z,13.90
2019-01-02T09:14:16.992Z,10.20
2019-01-02T09:17:00.873Z,9.67
2019-01-02T09:20:12.772Z,7.03
2019-01-02T09:22:58.802Z,7.53
2019-01-02T09:25:53.173Z,9.20
2019-01-02T09:29:16.061Z,8.70
2019-01-02T09:32:25.773Z,9.93
2019-01-02T09:35:14.349Z,7.90
2019-01-02T09:38:29.476Z,7.40
2019-01-02T09:41:11.165Z,6.60
2019-01-02T09:44:12.005Z,7.43
2019-01-02T09:47:29.679Z,5.97
2019-01-02T09:50:29.392Z,4.80
2019-01-02T09:53:51.772Z,9.97
2019-01-02T09:56:50.115Z,6.40
2019-01-02T09:59:59.386Z,6.73
2019-01-02T10:03:11.409Z,10.37
2019-01-02T10:06:27.478Z,8.40
2019-01-02T10:09:40.048Z,10.37
2019-01-02T10:12:35.372Z,6.53
2019-01-02T10:15:53.556Z,9.17
2019-01-02T10:18:42.740Z,6.93
2019-01-02T10:22:06.323Z,6.70
2019-01-02T10:25:11.453Z,6.53
2019-01-02T10:28:19.368Z,8.50
2019-01-02T10:31:26.906Z,9.50
2019-01-02T10:34:24.961Z,4.83
2019-01-02T10:37:39.583Z,8.53
